메인 페이지
METAR-TAF:

METAR-TAF

공항 :

퀸 알리아 국제공항

암만 Queen Alia, 요르단

위도: 31-40N, 경도: 035-58E, 고도: 721m

현재 날씨관측

예보는 19분 전, 17:00시(UTC)에 발표되었습니다.
12kt
온도 23°C
습도 41%
기압 1014 hPa
시정: 6000m

METAR: OJAI 311700Z 27012KT 6000 NSC 23/09 Q1014 NOSIG

시각: 20:19 (17:19 UTC)

예보

예보는 7 시간 15분 전, 10:04시(UTC)에 발표되었습니다.
예보 대상 시간: 31일 12시부터 01일 18시까지 (UTC)
8kt
시정: 6000m
확률 30%
31일 12시부터 31일 18시까지 (UTC)
서북서14kt
시정: 4000m
연무
확률 30% :
일시적
01일 12시부터 01일 18시까지 (UTC)
서북서17kt
시정: 4000m
날린먼지

TAF: OJAI 311004Z 3112/0118 28008KT 6000 NSC PROB30 3112/3118 30014KT 4000 HZ PROB30 TEMPO 0112/0118 30017KT 4000 BLDU

4,000개 이상의 공항 관측 자료 및 예보 (METAR 및 TAF 보고).

지도상에서 검색 가능한 기상관측소가 노란 점과 빨간 점으로 표시되어 있습니다.

기상관측소 명을 보려면 표시 위로 마우스를 이동하세요.

날씨 관측과 예보를 보려면 클릭하세요.

지도 변경 : 확대하려면 엑스 표시가 있는 녹색 버튼, 축소하려면 빼기 표시가 있는 녹색 버튼, 다음 페이지의 지도를 보려면 녹색 화살표를 클릭하세요.


METAR-TAF: